sensor_id;sensor_type;location;lat;lon;timestamp;temperature;humidity
4354;DHT22;11018;51.258;6.806;2022-09-27T00:00:22;11.10;99.90
4354;DHT22;11018;51.258;6.806;2022-09-27T00:02:47;11.20;99.90
4354;DHT22;11018;51.258;6.806;2022-09-27T00:05:14;11.10;99.90
4354;DHT22;11018;51.258;6.806;2022-09-27T00:07:40;11.10;99.90
4354;DHT22;11018;51.258;6.806;2022-09-27T00:10:06;11.20;99.90
4354;DHT22;11018;51.258;6.806;2022-09-27T00:12:33;11.20;99.90
4354;DHT22;11018;51.258;6.806;2022-09-27T00:14:58;11.10;99.90
4354;DHT22;11018;51.258;6.806;2022-09-27T00:17:25;11.20;99.90
4354;DHT22;11018;51.258;6.806;2022-09-27T00:19:51;11.20;99.90
4354;DHT22;11018;51.258;6.806;2022-09-27T00:22:17;11.20;99.90
4354;DHT22;11018;51.258;6.806;2022-09-27T00:24:42;11.30;99.90
4354;DHT22;11018;51.258;6.806;2022-09-27T00:27:08;11.20;99.90
4354;DHT22;11018;51.258;6.806;2022-09-27T00:29:33;11.30;99.90
4354;DHT22;11018;51.258;6.806;2022-09-27T00:31:59;11.10;99.90
4354;DHT22;11018;51.258;6.806;2022-09-27T00:34:25;11.10;99.90
4354;DHT22;11018;51.258;6.806;2022-09-27T00:36:51;11.10;99.90
4354;DHT22;11018;51.258;6.806;2022-09-27T00:39:17;11.10;99.90
4354;DHT22;11018;51.258;6.806;2022-09-27T00:41:43;11.10;99.90
4354;DHT22;11018;51.258;6.806;2022-09-27T00:50:16;11.30;99.90
4354;DHT22;11018;51.258;6.806;2022-09-27T00:55:47;11.30;99.90
4354;DHT22;11018;51.258;6.806;2022-09-27T00:58:17;11.30;99.90
4354;DHT22;11018;51.258;6.806;2022-09-27T01:00:44;11.30;99.90
4354;DHT22;11018;51.258;6.806;2022-09-27T01:03:22;11.30;99.90
4354;DHT22;11018;51.258;6.806;2022-09-27T01:05:49;11.40;99.90
4354;DHT22;11018;51.258;6.806;2022-09-27T01:08:15;11.40;99.90
4354;DHT22;11018;51.258;6.806;2022-09-27T01:11:01;11.40;99.90
4354;DHT22;11018;51.258;6.806;2022-09-27T01:13:38;11.40;99.90
4354;DHT22;11018;51.258;6.806;2022-09-27T01:16:26;11.30;99.90
4354;DHT22;11018;51.258;6.806;2022-09-27T01:19:30;11.40;99.90
4354;DHT22;11018;51.258;6.806;2022-09-27T01:21:56;11.30;99.90
4354;DHT22;11018;51.258;6.806;2022-09-27T01:30:19;11.40;99.90
4354;DHT22;11018;51.258;6.806;2022-09-27T01:38:22;11.30;99.90
4354;DHT22;11018;51.258;6.806;2022-09-27T01:40:51;11.30;99.90
4354;DHT22;11018;51.258;6.806;2022-09-27T01:43:30;11.20;99.90
4354;DHT22;11018;51.258;6.806;2022-09-27T01:46:07;11.30;99.90
4354;DHT22;11018;51.258;6.806;2022-09-27T01:48:41;11.30;99.90
4354;DHT22;11018;51.258;6.806;2022-09-27T01:51:19;11.30;99.90
4354;DHT22;11018;51.258;6.806;2022-09-27T01:53:49;11.30;99.90
4354;DHT22;11018;51.258;6.806;2022-09-27T01:56:21;11.30;99.90
4354;DHT22;11018;51.258;6.806;2022-09-27T01:59:01;11.30;99.90
4354;DHT22;11018;51.258;6.806;2022-09-27T02:01:30;11.20;99.90
4354;DHT22;11018;51.258;6.806;2022-09-27T02:03:58;11.20;99.90
4354;DHT22;11018;51.258;6.806;2022-09-27T02:06:33;11.20;99.90
4354;DHT22;11018;51.258;6.806;2022-09-27T02:09:05;11.10;99.90
4354;DHT22;11018;51.258;6.806;2022-09-27T02:11:33;11.20;99.90
4354;DHT22;11018;51.258;6.806;2022-09-27T02:14:41;11.10;99.90
4354;DHT22;11018;51.258;6.806;2022-09-27T02:17:39;11.10;99.90
4354;DHT22;11018;51.258;6.806;2022-09-27T02:22:56;11.00;99.90
4354;DHT22;11018;51.258;6.806;2022-09-27T02:25:34;11.00;99.90
4354;DHT22;11018;51.258;6.806;2022-09-27T02:30:56;10.90;99.90
4354;DHT22;11018;51.258;6.806;2022-09-27T02:33:27;10.90;99.90
4354;DHT22;11018;51.258;6.806;2022-09-27T02:35:54;10.80;99.90
4354;DHT22;11018;51.258;6.806;2022-09-27T02:38:20;10.80;99.90
4354;DHT22;11018;51.258;6.806;2022-09-27T02:40:46;10.80;99.90
4354;DHT22;11018;51.258;6.806;2022-09-27T02:43:14;10.90;99.90
4354;DHT22;11018;51.258;6.806;2022-09-27T02:45:50;10.90;99.90
4354;DHT22;11018;51.258;6.806;2022-09-27T02:54:34;11.00;99.90
4354;DHT22;11018;51.258;6.806;2022-09-27T02:57:26;11.00;99.90
4354;DHT22;11018;51.258;6.806;2022-09-27T03:00:17;11.00;99.90
4354;DHT22;11018;51.258;6.806;2022-09-27T03:03:06;11.00;99.90
4354;DHT22;11018;51.258;6.806;2022-09-27T03:05:38;11.00;99.90
4354;DHT22;11018;51.258;6.806;2022-09-27T03:08:06;10.90;99.90
4354;DHT22;11018;51.258;6.806;2022-09-27T03:10:32;10.80;99.90
4354;DHT22;11018;51.258;6.806;2022-09-27T03:12:57;10.90;99.90
4354;DHT22;11018;51.258;6.806;2022-09-27T03:15:23;10.90;99.90
4354;DHT22;11018;51.258;6.806;2022-09-27T03:17:49;10.90;99.90
4354;DHT22;11018;51.258;6.806;2022-09-27T03:20:14;10.80;99.90
4354;DHT22;11018;51.258;6.806;2022-09-27T03:22:40;10.90;99.90
4354;DHT22;11018;51.258;6.806;2022-09-27T03:25:07;10.90;99.90
4354;DHT22;11018;51.258;6.806;2022-09-27T03:27:32;10.90;99.90
4354;DHT22;11018;51.258;6.806;2022-09-27T03:29:58;10.80;99.90
4354;DHT22;11018;51.258;6.806;2022-09-27T03:32:24;10.70;99.90
4354;DHT22;11018;51.258;6.806;2022-09-27T03:34:50;10.60;99.90
4354;DHT22;11018;51.258;6.806;2022-09-27T03:37:16;10.50;99.90
4354;DHT22;11018;51.258;6.806;2022-09-27T03:39:42;10.40;99.90
4354;DHT22;11018;51.258;6.806;2022-09-27T03:42:07;10.20;99.90
4354;DHT22;11018;51.258;6.806;2022-09-27T03:44:33;10.20;99.90
4354;DHT22;11018;51.258;6.806;2022-09-27T03:46:59;10.20;99.90
4354;DHT22;11018;51.258;6.806;2022-09-27T03:49:24;10.10;99.90
4354;DHT22;11018;51.258;6.806;2022-09-27T03:51:50;10.10;99.90
4354;DHT22;11018;51.258;6.806;2022-09-27T03:54:15;10.00;99.90
4354;DHT22;11018;51.258;6.806;2022-09-27T03:56:41;10.10;99.90
4354;DHT22;11018;51.258;6.806;2022-09-27T03:59:06;10.10;99.90
4354;DHT22;11018;51.258;6.806;2022-09-27T04:01:32;10.00;99.90
4354;DHT22;11018;51.258;6.806;2022-09-27T04:03:59;10.00;99.90
4354;DHT22;11018;51.258;6.806;2022-09-27T04:09:02;10.00;99.90
4354;DHT22;11018;51.258;6.806;2022-09-27T04:11:28;10.00;99.90
4354;DHT22;11018;51.258;6.806;2022-09-27T04:13:53;9.90;99.90
4354;DHT22;11018;51.258;6.806;2022-09-27T04:16:20;9.90;99.90
4354;DHT22;11018;51.258;6.806;2022-09-27T04:18:46;9.80;99.90
4354;DHT22;11018;51.258;6.806;2022-09-27T04:21:12;9.70;99.90
4354;DHT22;11018;51.258;6.806;2022-09-27T04:23:37;9.70;99.90
4354;DHT22;11018;51.258;6.806;2022-09-27T04:26:03;9.80;99.90
4354;DHT22;11018;51.258;6.806;2022-09-27T04:28:28;9.80;99.90
4354;DHT22;11018;51.258;6.806;2022-09-27T04:30:55;9.90;99.90
4354;DHT22;11018;51.258;6.806;2022-09-27T04:33:20;9.90;99.90
4354;DHT22;11018;51.258;6.806;2022-09-27T04:35:46;10.00;99.90
4354;DHT22;11018;51.258;6.806;2022-09-27T04:38:30;10.00;99.90
4354;DHT22;11018;51.258;6.806;2022-09-27T04:40:55;9.90;99.90
4354;DHT22;11018;51.258;6.806;2022-09-27T04:43:21;9.90;99.90
4354;DHT22;11018;51.258;6.806;2022-09-27T04:45:47;9.90;99.90
4354;DHT22;11018;51.258;6.806;2022-09-27T04:48:12;9.90;99.90
4354;DHT22;11018;51.258;6.806;2022-09-27T04:50:38;10.00;99.90
4354;DHT22;11018;51.258;6.806;2022-09-27T04:53:04;10.00;99.90
4354;DHT22;11018;51.258;6.806;2022-09-27T04:55:30;10.00;99.90
4354;DHT22;11018;51.258;6.806;2022-09-27T04:57:56;10.10;99.90
4354;DHT22;11018;51.258;6.806;2022-09-27T05:00:21;10.10;99.90
4354;DHT22;11018;51.258;6.806;2022-09-27T05:02:47;10.10;99.90
4354;DHT22;11018;51.258;6.806;2022-09-27T05:05:14;10.10;99.90
4354;DHT22;11018;51.258;6.806;2022-09-27T05:07:40;10.00;99.90
4354;DHT22;11018;51.258;6.806;2022-09-27T05:10:07;9.90;99.90
4354;DHT22;11018;51.258;6.806;2022-09-27T05:12:32;9.90;99.90
4354;DHT22;11018;51.258;6.806;2022-09-27T05:14:58;10.00;99.90
4354;DHT22;11018;51.258;6.806;2022-09-27T05:17:24;10.00;99.90
4354;DHT22;11018;51.258;6.806;2022-09-27T05:19:50;9.90;99.90
4354;DHT22;11018;51.258;6.806;2022-09-27T05:22:16;10.00;99.90
4354;DHT22;11018;51.258;6.806;2022-09-27T05:24:42;10.10;99.90
4354;DHT22;11018;51.258;6.806;2022-09-27T05:27:09;10.10;99.90
4354;DHT22;11018;51.258;6.806;2022-09-27T05:29:36;10.20;99.90
4354;DHT22;11018;51.258;6.806;2022-09-27T05:32:01;10.20;99.70
4354;DHT22;11018;51.258;6.806;2022-09-27T05:34:27;10.20;99.90
4354;DHT22;11018;51.258;6.806;2022-09-27T05:36:53;10.10;98.80
4354;DHT22;11018;51.258;6.806;2022-09-27T05:39:18;10.20;97.80
4354;DHT22;11018;51.258;6.806;2022-09-27T05:41:45;10.20;98.80
4354;DHT22;11018;51.258;6.806;2022-09-27T05:44:11;10.20;96.80
4354;DHT22;11018;51.258;6.806;2022-09-27T05:46:38;10.10;95.50
4354;DHT22;11018;51.258;6.806;2022-09-27T05:49:04;10.20;95.20
4354;DHT22;11018;51.258;6.806;2022-09-27T05:51:29;10.10;96.90
4354;DHT22;11018;51.258;6.806;2022-09-27T05:53:55;10.20;96.70
4354;DHT22;11018;51.258;6.806;2022-09-27T05:56:20;10.20;93.10
4354;DHT22;11018;51.258;6.806;2022-09-27T05:58:46;10.30;93.60
4354;DHT22;11018;51.258;6.806;2022-09-27T06:01:12;10.30;93.60
4354;DHT22;11018;51.258;6.806;2022-09-27T06:03:37;10.30;91.20
4354;DHT22;11018;51.258;6.806;2022-09-27T06:06:05;10.30;91.50
4354;DHT22;11018;51.258;6.806;2022-09-27T06:08:35;10.40;90.00
4354;DHT22;11018;51.258;6.806;2022-09-27T06:11:04;10.40;89.00
4354;DHT22;11018;51.258;6.806;2022-09-27T06:13:30;10.40;87.40
4354;DHT22;11018;51.258;6.806;2022-09-27T06:15:57;10.40;87.30
4354;DHT22;11018;51.258;6.806;2022-09-27T06:18:23;10.40;87.90
4354;DHT22;11018;51.258;6.806;2022-09-27T06:20:49;10.50;88.90
4354;DHT22;11018;51.258;6.806;2022-09-27T06:23:17;10.50;87.70
4354;DHT22;11018;51.258;6.806;2022-09-27T06:25:44;10.50;89.70
4354;DHT22;11018;51.258;6.806;2022-09-27T06:28:10;10.60;86.70
4354;DHT22;11018;51.258;6.806;2022-09-27T06:30:41;10.60;86.00
4354;DHT22;11018;51.258;6.806;2022-09-27T06:33:10;10.70;82.90
4354;DHT22;11018;51.258;6.806;2022-09-27T06:35:36;10.70;81.90
4354;DHT22;11018;51.258;6.806;2022-09-27T06:38:03;10.80;83.50
4354;DHT22;11018;51.258;6.806;2022-09-27T06:40:30;10.80;82.60
4354;DHT22;11018;51.258;6.806;2022-09-27T06:43:03;10.80;80.60
4354;DHT22;11018;51.258;6.806;2022-09-27T06:45:29;10.80;80.10
4354;DHT22;11018;51.258;6.806;2022-09-27T06:47:56;10.80;78.60
4354;DHT22;11018;51.258;6.806;2022-09-27T06:50:22;10.80;78.30
4354;DHT22;11018;51.258;6.806;2022-09-27T06:52:48;10.80;79.30
4354;DHT22;11018;51.258;6.806;2022-09-27T06:55:14;10.80;78.50
4354;DHT22;11018;51.258;6.806;2022-09-27T06:57:40;10.80;80.70
4354;DHT22;11018;51.258;6.806;2022-09-27T07:00:24;10.80;79.60
4354;DHT22;11018;51.258;6.806;2022-09-27T07:02:54;10.80;78.60
4354;DHT22;11018;51.258;6.806;2022-09-27T07:05:29;10.80;79.40
4354;DHT22;11018;51.258;6.806;2022-09-27T07:07:56;10.80;78.80
4354;DHT22;11018;51.258;6.806;2022-09-27T07:10:24;10.90;76.50
4354;DHT22;11018;51.258;6.806;2022-09-27T07:12:50;10.90;78.40
4354;DHT22;11018;51.258;6.806;2022-09-27T07:15:17;10.90;78.20
4354;DHT22;11018;51.258;6.806;2022-09-27T07:17:43;10.90;78.20
4354;DHT22;11018;51.258;6.806;2022-09-27T07:20:08;11.00;79.20
4354;DHT22;11018;51.258;6.806;2022-09-27T07:22:41;11.00;78.60
4354;DHT22;11018;51.258;6.806;2022-09-27T07:25:08;11.10;77.70
4354;DHT22;11018;51.258;6.806;2022-09-27T07:27:34;11.20;77.90
4354;DHT22;11018;51.258;6.806;2022-09-27T07:30:00;11.20;76.40
4354;DHT22;11018;51.258;6.806;2022-09-27T07:32:25;11.20;77.30
4354;DHT22;11018;51.258;6.806;2022-09-27T07:34:51;11.20;77.30
4354;DHT22;11018;51.258;6.806;2022-09-27T07:37:16;11.30;76.70
4354;DHT22;11018;51.258;6.806;2022-09-27T07:39:42;11.30;77.40
4354;DHT22;11018;51.258;6.806;2022-09-27T07:42:09;11.30;79.40
4354;DHT22;11018;51.258;6.806;2022-09-27T07:44:34;11.40;74.00
4354;DHT22;11018;51.258;6.806;2022-09-27T07:47:00;11.40;74.60
4354;DHT22;11018;51.258;6.806;2022-09-27T07:49:25;11.50;76.40
4354;DHT22;11018;51.258;6.806;2022-09-27T07:51:51;11.60;73.20
4354;DHT22;11018;51.258;6.806;2022-09-27T07:54:17;11.60;71.70
4354;DHT22;11018;51.258;6.806;2022-09-27T07:56:44;11.70;71.80
4354;DHT22;11018;51.258;6.806;2022-09-27T07:59:10;11.80;70.30
4354;DHT22;11018;51.258;6.806;2022-09-27T08:01:35;11.70;70.30
4354;DHT22;11018;51.258;6.806;2022-09-27T08:04:01;11.80;70.50
4354;DHT22;11018;51.258;6.806;2022-09-27T08:06:26;11.80;68.80
4354;DHT22;11018;51.258;6.806;2022-09-27T08:08:52;11.90;68.10
4354;DHT22;11018;51.258;6.806;2022-09-27T08:11:19;12.00;69.90
4354;DHT22;11018;51.258;6.806;2022-09-27T08:13:46;12.10;64.20
4354;DHT22;11018;51.258;6.806;2022-09-27T08:16:14;12.10;63.20
4354;DHT22;11018;51.258;6.806;2022-09-27T08:18:39;12.00;66.40
4354;DHT22;11018;51.258;6.806;2022-09-27T08:21:05;12.00;61.80
4354;DHT22;11018;51.258;6.806;2022-09-27T08:23:30;12.00;62.40
4354;DHT22;11018;51.258;6.806;2022-09-27T08:25:56;12.00;63.00
4354;DHT22;11018;51.258;6.806;2022-09-27T08:28:24;12.00;61.60
4354;DHT22;11018;51.258;6.806;2022-09-27T08:30:50;12.00;63.00
4354;DHT22;11018;51.258;6.806;2022-09-27T08:33:16;12.00;60.80
4354;DHT22;11018;51.258;6.806;2022-09-27T08:35:42;12.00;63.60
4354;DHT22;11018;51.258;6.806;2022-09-27T08:38:08;12.10;60.60
4354;DHT22;11018;51.258;6.806;2022-09-27T08:40:54;12.20;61.50
4354;DHT22;11018;51.258;6.806;2022-09-27T08:43:47;12.30;59.30
4354;DHT22;11018;51.258;6.806;2022-09-27T08:49:09;12.20;62.40
4354;DHT22;11018;51.258;6.806;2022-09-27T08:51:37;12.20;62.60
4354;DHT22;11018;51.258;6.806;2022-09-27T08:54:10;12.20;65.00
4354;DHT22;11018;51.258;6.806;2022-09-27T08:56:38;12.20;62.10
4354;DHT22;11018;51.258;6.806;2022-09-27T08:59:14;12.20;61.40
4354;DHT22;11018;51.258;6.806;2022-09-27T09:01:41;12.10;61.50
4354;DHT22;11018;51.258;6.806;2022-09-27T09:04:08;12.00;62.40
4354;DHT22;11018;51.258;6.806;2022-09-27T09:20:54;12.20;64.60
4354;DHT22;11018;51.258;6.806;2022-09-27T09:34:50;12.80;63.80
4354;DHT22;11018;51.258;6.806;2022-09-27T09:37:35;12.90;62.70
4354;DHT22;11018;51.258;6.806;2022-09-27T09:40:41;13.00;62.90
4354;DHT22;11018;51.258;6.806;2022-09-27T09:43:27;13.30;60.70
4354;DHT22;11018;51.258;6.806;2022-09-27T09:46:19;13.40;58.00
4354;DHT22;11018;51.258;6.806;2022-09-27T09:51:23;13.80;53.10
4354;DHT22;11018;51.258;6.806;2022-09-27T09:53:55;13.80;50.50
4354;DHT22;11018;51.258;6.806;2022-09-27T09:56:27;13.80;49.10
4354;DHT22;11018;51.258;6.806;2022-09-27T09:58:59;13.90;52.00
4354;DHT22;11018;51.258;6.806;2022-09-27T10:01:41;14.10;51.00
4354;DHT22;11018;51.258;6.806;2022-09-27T10:04:23;14.20;45.30
4354;DHT22;11018;51.258;6.806;2022-09-27T10:06:49;14.20;46.30
4354;DHT22;11018;51.258;6.806;2022-09-27T10:09:16;14.20;44.60
4354;DHT22;11018;51.258;6.806;2022-09-27T10:11:46;14.20;43.50
4354;DHT22;11018;51.258;6.806;2022-09-27T10:14:14;14.40;43.40
4354;DHT22;11018;51.258;6.806;2022-09-27T10:16:45;14.60;43.50
4354;DHT22;11018;51.258;6.806;2022-09-27T10:19:15;14.90;42.20
4354;DHT22;11018;51.258;6.806;2022-09-27T10:21:42;14.90;42.90
4354;DHT22;11018;51.258;6.806;2022-09-27T10:24:12;14.90;43.30
4354;DHT22;11018;51.258;6.806;2022-09-27T10:26:40;14.70;40.90
4354;DHT22;11018;51.258;6.806;2022-09-27T10:29:19;14.40;43.80
4354;DHT22;11018;51.258;6.806;2022-09-27T10:31:47;14.20;41.30
4354;DHT22;11018;51.258;6.806;2022-09-27T10:34:26;14.20;42.30
4354;DHT22;11018;51.258;6.806;2022-09-27T10:39:40;14.30;43.00
4354;DHT22;11018;51.258;6.806;2022-09-27T10:44:55;13.90;43.20
4354;DHT22;11018;51.258;6.806;2022-09-27T10:47:22;13.90;44.60
4354;DHT22;11018;51.258;6.806;2022-09-27T10:49:50;13.90;43.90
4354;DHT22;11018;51.258;6.806;2022-09-27T10:52:22;13.80;46.20
4354;DHT22;11018;51.258;6.806;2022-09-27T10:54:59;13.70;46.90
4354;DHT22;11018;51.258;6.806;2022-09-27T10:57:27;13.50;49.20
4354;DHT22;11018;51.258;6.806;2022-09-27T11:00:05;13.40;52.30
4354;DHT22;11018;51.258;6.806;2022-09-27T11:02:35;13.50;51.30
4354;DHT22;11018;51.258;6.806;2022-09-27T11:05:10;13.70;51.10
4354;DHT22;11018;51.258;6.806;2022-09-27T11:07:49;13.90;51.90
4354;DHT22;11018;51.258;6.806;2022-09-27T11:10:35;14.00;48.50
4354;DHT22;11018;51.258;6.806;2022-09-27T11:13:16;14.20;49.00
4354;DHT22;11018;51.258;6.806;2022-09-27T11:30:18;14.80;43.80
4354;DHT22;11018;51.258;6.806;2022-09-27T11:33:24;15.00;41.60
4354;DHT22;11018;51.258;6.806;2022-09-27T11:38:46;14.60;40.40
4354;DHT22;11018;51.258;6.806;2022-09-27T11:41:41;14.30;40.70
4354;DHT22;11018;51.258;6.806;2022-09-27T11:44:54;14.10;41.90
4354;DHT22;11018;51.258;6.806;2022-09-27T11:47:36;14.00;40.70
4354;DHT22;11018;51.258;6.806;2022-09-27T11:53:45;14.00;41.90
4354;DHT22;11018;51.258;6.806;2022-09-27T12:02:20;14.20;39.30
4354;DHT22;11018;51.258;6.806;2022-09-27T12:05:24;14.10;41.00
4354;DHT22;11018;51.258;6.806;2022-09-27T12:08:17;14.10;42.70
4354;DHT22;11018;51.258;6.806;2022-09-27T12:10:49;14.00;42.80
4354;DHT22;11018;51.258;6.806;2022-09-27T12:13:22;13.70;46.00
4354;DHT22;11018;51.258;6.806;2022-09-27T12:15:49;13.40;50.40
4354;DHT22;11018;51.258;6.806;2022-09-27T12:18:30;13.00;56.80
4354;DHT22;11018;51.258;6.806;2022-09-27T12:21:01;12.80;59.30
4354;DHT22;11018;51.258;6.806;2022-09-27T12:26:21;13.10;55.30
4354;DHT22;11018;51.258;6.806;2022-09-27T12:28:54;13.30;55.70
4354;DHT22;11018;51.258;6.806;2022-09-27T12:31:26;13.40;50.50
4354;DHT22;11018;51.258;6.806;2022-09-27T12:34:18;13.60;54.90
4354;DHT22;11018;51.258;6.806;2022-09-27T12:36:50;13.90;49.50
4354;DHT22;11018;51.258;6.806;2022-09-27T12:42:19;13.90;47.30
4354;DHT22;11018;51.258;6.806;2022-09-27T12:44:46;13.90;48.50
4354;DHT22;11018;51.258;6.806;2022-09-27T12:47:42;13.70;43.50
4354;DHT22;11018;51.258;6.806;2022-09-27T12:52:53;13.00;46.80
4354;DHT22;11018;51.258;6.806;2022-09-27T12:55:57;12.70;46.60
4354;DHT22;11018;51.258;6.806;2022-09-27T12:58:56;12.60;50.80
4354;DHT22;11018;51.258;6.806;2022-09-27T13:07:06;13.10;47.90
4354;DHT22;11018;51.258;6.806;2022-09-27T13:09:39;13.30;47.60
4354;DHT22;11018;51.258;6.806;2022-09-27T13:12:08;13.20;46.20
4354;DHT22;11018;51.258;6.806;2022-09-27T13:25:59;13.60;42.20
4354;DHT22;11018;51.258;6.806;2022-09-27T13:31:10;14.10;40.20
4354;DHT22;11018;51.258;6.806;2022-09-27T13:33:40;14.30;39.40
4354;DHT22;11018;51.258;6.806;2022-09-27T13:47:03;14.80;34.10
4354;DHT22;11018;51.258;6.806;2022-09-27T13:49:36;14.80;33.30
4354;DHT22;11018;51.258;6.806;2022-09-27T13:52:40;14.70;34.20
4354;DHT22;11018;51.258;6.806;2022-09-27T13:55:45;14.80;35.40
4354;DHT22;11018;51.258;6.806;2022-09-27T14:01:38;14.80;32.30
4354;DHT22;11018;51.258;6.806;2022-09-27T14:04:18;14.60;31.30
4354;DHT22;11018;51.258;6.806;2022-09-27T14:06:49;14.40;32.50
4354;DHT22;11018;51.258;6.806;2022-09-27T14:09:19;14.40;32.10
4354;DHT22;11018;51.258;6.806;2022-09-27T14:11:50;14.50;32.30
4354;DHT22;11018;51.258;6.806;2022-09-27T14:14:21;14.80;31.70
4354;DHT22;11018;51.258;6.806;2022-09-27T14:16:48;15.10;31.30
4354;DHT22;11018;51.258;6.806;2022-09-27T14:19:22;15.30;29.50
4354;DHT22;11018;51.258;6.806;2022-09-27T14:21:50;15.60;29.00
4354;DHT22;11018;51.258;6.806;2022-09-27T14:24:29;16.00;28.30
4354;DHT22;11018;51.258;6.806;2022-09-27T14:29:32;15.40;29.00
4354;DHT22;11018;51.258;6.806;2022-09-27T14:32:03;15.20;29.70
4354;DHT22;11018;51.258;6.806;2022-09-27T14:34:29;15.00;29.60
4354;DHT22;11018;51.258;6.806;2022-09-27T14:36:55;14.90;30.50
4354;DHT22;11018;51.258;6.806;2022-09-27T14:39:40;14.50;31.10
4354;DHT22;11018;51.258;6.806;2022-09-27T14:42:21;14.60;32.50
4354;DHT22;11018;51.258;6.806;2022-09-27T14:44:48;14.80;31.30
4354;DHT22;11018;51.258;6.806;2022-09-27T14:47:19;14.80;32.10
4354;DHT22;11018;51.258;6.806;2022-09-27T14:49:59;14.70;32.40
4354;DHT22;11018;51.258;6.806;2022-09-27T14:52:28;14.80;33.50
4354;DHT22;11018;51.258;6.806;2022-09-27T14:57:39;14.80;33.20
4354;DHT22;11018;51.258;6.806;2022-09-27T15:00:20;14.50;33.00
4354;DHT22;11018;51.258;6.806;2022-09-27T15:02:48;14.20;33.90
4354;DHT22;11018;51.258;6.806;2022-09-27T15:05:17;14.20;33.80
4354;DHT22;11018;51.258;6.806;2022-09-27T15:07:44;14.00;34.40
4354;DHT22;11018;51.258;6.806;2022-09-27T15:10:16;14.00;36.10
4354;DHT22;11018;51.258;6.806;2022-09-27T15:12:44;13.80;36.50
4354;DHT22;11018;51.258;6.806;2022-09-27T15:15:14;13.70;36.90
4354;DHT22;11018;51.258;6.806;2022-09-27T15:17:42;13.50;39.00
4354;DHT22;11018;51.258;6.806;2022-09-27T15:20:35;13.30;42.40
4354;DHT22;11018;51.258;6.806;2022-09-27T15:23:02;13.10;44.80
4354;DHT22;11018;51.258;6.806;2022-09-27T15:25:32;13.10;44.20
4354;DHT22;11018;51.258;6.806;2022-09-27T15:28:25;13.00;45.00
4354;DHT22;11018;51.258;6.806;2022-09-27T15:30:56;13.00;45.20
4354;DHT22;11018;51.258;6.806;2022-09-27T15:33:24;12.90;45.80
4354;DHT22;11018;51.258;6.806;2022-09-27T15:35:53;12.90;45.70
4354;DHT22;11018;51.258;6.806;2022-09-27T15:38:28;12.80;47.10
4354;DHT22;11018;51.258;6.806;2022-09-27T15:40:59;12.90;47.40
4354;DHT22;11018;51.258;6.806;2022-09-27T15:43:29;12.70;47.20
4354;DHT22;11018;51.258;6.806;2022-09-27T15:45:57;12.70;45.50
4354;DHT22;11018;51.258;6.806;2022-09-27T15:48:25;12.60;47.20
4354;DHT22;11018;51.258;6.806;2022-09-27T15:50:51;12.60;50.00
4354;DHT22;11018;51.258;6.806;2022-09-27T15:56:02;12.30;52.80
4354;DHT22;11018;51.258;6.806;2022-09-27T15:58:28;12.10;56.50
4354;DHT22;11018;51.258;6.806;2022-09-27T16:00:59;11.90;62.80
4354;DHT22;11018;51.258;6.806;2022-09-27T16:03:30;11.50;61.50
4354;DHT22;11018;51.258;6.806;2022-09-27T16:05:56;11.30;65.10
4354;DHT22;11018;51.258;6.806;2022-09-27T16:08:23;11.10;66.30
4354;DHT22;11018;51.258;6.806;2022-09-27T16:10:54;11.10;64.10
4354;DHT22;11018;51.258;6.806;2022-09-27T16:13:21;11.10;69.50
4354;DHT22;11018;51.258;6.806;2022-09-27T16:15:47;11.00;71.90
4354;DHT22;11018;51.258;6.806;2022-09-27T16:18:13;11.00;74.80
4354;DHT22;11018;51.258;6.806;2022-09-27T16:20:39;11.00;78.10
4354;DHT22;11018;51.258;6.806;2022-09-27T16:23:04;11.00;74.80
4354;DHT22;11018;51.258;6.806;2022-09-27T16:25:30;11.00;73.60
4354;DHT22;11018;51.258;6.806;2022-09-27T16:28:01;11.10;62.90
4354;DHT22;11018;51.258;6.806;2022-09-27T16:30:27;11.10;61.60
4354;DHT22;11018;51.258;6.806;2022-09-27T16:32:53;11.20;53.90
4354;DHT22;11018;51.258;6.806;2022-09-27T16:35:21;11.20;56.20
4354;DHT22;11018;51.258;6.806;2022-09-27T16:37:48;11.20;56.90
4354;DHT22;11018;51.258;6.806;2022-09-27T16:40:14;11.10;58.60
4354;DHT22;11018;51.258;6.806;2022-09-27T16:42:43;11.00;60.10
4354;DHT22;11018;51.258;6.806;2022-09-27T16:45:09;11.00;59.60
4354;DHT22;11018;51.258;6.806;2022-09-27T16:47:36;11.20;60.20
4354;DHT22;11018;51.258;6.806;2022-09-27T16:50:03;11.20;56.70
4354;DHT22;11018;51.258;6.806;2022-09-27T16:52:47;11.20;56.10
4354;DHT22;11018;51.258;6.806;2022-09-27T16:55:15;11.30;56.30
4354;DHT22;11018;51.258;6.806;2022-09-27T16:57:48;11.30;58.00
4354;DHT22;11018;51.258;6.806;2022-09-27T17:00:15;11.30;57.10
4354;DHT22;11018;51.258;6.806;2022-09-27T17:02:41;11.40;59.50
4354;DHT22;11018;51.258;6.806;2022-09-27T17:05:11;11.30;58.60
4354;DHT22;11018;51.258;6.806;2022-09-27T17:07:37;11.30;58.10
4354;DHT22;11018;51.258;6.806;2022-09-27T17:10:03;11.20;58.60
4354;DHT22;11018;51.258;6.806;2022-09-27T17:12:30;11.20;59.70
4354;DHT22;11018;51.258;6.806;2022-09-27T17:14:56;11.10;61.90
4354;DHT22;11018;51.258;6.806;2022-09-27T17:17:22;11.10;65.70
4354;DHT22;11018;51.258;6.806;2022-09-27T17:19:48;11.00;67.50
4354;DHT22;11018;51.258;6.806;2022-09-27T17:22:13;11.00;69.70
4354;DHT22;11018;51.258;6.806;2022-09-27T17:24:39;11.00;70.80
4354;DHT22;11018;51.258;6.806;2022-09-27T17:27:04;10.90;71.20
4354;DHT22;11018;51.258;6.806;2022-09-27T17:29:30;10.90;71.70
4354;DHT22;11018;51.258;6.806;2022-09-27T17:31:56;10.90;73.20
4354;DHT22;11018;51.258;6.806;2022-09-27T17:34:21;10.80;72.00
4354;DHT22;11018;51.258;6.806;2022-09-27T17:36:47;10.90;72.20
4354;DHT22;11018;51.258;6.806;2022-09-27T17:39:16;10.80;71.20
4354;DHT22;11018;51.258;6.806;2022-09-27T17:41:41;10.80;72.20
4354;DHT22;11018;51.258;6.806;2022-09-27T17:44:11;10.80;73.10
4354;DHT22;11018;51.258;6.806;2022-09-27T17:46:37;10.80;71.30
4354;DHT22;11018;51.258;6.806;2022-09-27T17:49:03;10.80;72.40
4354;DHT22;11018;51.258;6.806;2022-09-27T17:51:49;10.80;74.60
4354;DHT22;11018;51.258;6.806;2022-09-27T17:54:16;10.80;76.50
4354;DHT22;11018;51.258;6.806;2022-09-27T17:56:43;10.80;77.10
4354;DHT22;11018;51.258;6.806;2022-09-27T17:59:10;10.90;73.00
4354;DHT22;11018;51.258;6.806;2022-09-27T18:01:37;10.90;72.60
4354;DHT22;11018;51.258;6.806;2022-09-27T18:04:04;10.90;74.00
4354;DHT22;11018;51.258;6.806;2022-09-27T18:06:30;10.90;75.00
4354;DHT22;11018;51.258;6.806;2022-09-27T18:08:56;10.90;75.70
4354;DHT22;11018;51.258;6.806;2022-09-27T18:11:24;11.00;74.40
4354;DHT22;11018;51.258;6.806;2022-09-27T18:13:57;11.10;74.40
4354;DHT22;11018;51.258;6.806;2022-09-27T18:16:35;11.20;71.10
4354;DHT22;11018;51.258;6.806;2022-09-27T18:19:04;11.10;70.90
4354;DHT22;11018;51.258;6.806;2022-09-27T18:21:30;11.10;71.40
4354;DHT22;11018;51.258;6.806;2022-09-27T18:23:57;11.20;71.20
4354;DHT22;11018;51.258;6.806;2022-09-27T18:26:26;11.10;71.20
4354;DHT22;11018;51.258;6.806;2022-09-27T18:28:54;11.10;72.80
4354;DHT22;11018;51.258;6.806;2022-09-27T18:31:21;11.10;71.40
4354;DHT22;11018;51.258;6.806;2022-09-27T18:33:48;11.10;73.20
4354;DHT22;11018;51.258;6.806;2022-09-27T18:36:21;11.00;74.30